Time,TemperatureF,DewpointF,PressureIn,WindDirection,WindDirectionDegrees,WindSpeedMPH,WindSpeedGustMPH,Humidity,HourlyPrecipIn,Conditions,Clouds,dailyrainin,SolarRadiationWatts/m^2,SoftwareType,DateUTC
2013-01-08 00:04:00,41.0,27.0,-100.00,SE,141,8.0,14.0,57,0.00,,,0.00,0.000000,,2013-01-08 05:04:00,
2013-01-08 00:33:00,40.0,27.0,-100.00,SE,138,7.0,12.0,60,0.00,,,-99.99,0.000000,,2013-01-08 05:33:00,
2013-01-08 00:43:00,40.0,27.0,-100.00,SE,138,7.0,12.0,60,0.00,,,-99.99,0.000000,,2013-01-08 05:43:00,
2013-01-08 00:53:00,40.0,27.0,-100.00,SE,138,7.0,12.0,60,0.00,,,-99.99,0.000000,,2013-01-08 05:53:00,
2013-01-08 01:02:00,40.0,27.0,-100.00,SE,138,7.0,12.0,60,0.00,,,-99.99,0.000000,,2013-01-08 06:02:00,
2013-01-08 01:33:00,39.0,26.0,-100.00,SE,138,8.0,17.0,60,0.00,,,0.00,0.000000,,2013-01-08 06:33:00,
2013-01-08 01:43:00,39.0,26.0,-100.00,SE,138,8.0,17.0,60,0.00,,,0.00,0.000000,,2013-01-08 06:43:00,
2013-01-08 01:53:00,39.0,26.0,-100.00,SE,138,8.0,17.0,60,0.00,,,0.00,0.000000,,2013-01-08 06:53:00,
2013-01-08 02:02:00,39.0,26.0,-100.00,SE,138,8.0,17.0,60,0.00,,,0.00,0.000000,,2013-01-08 07:02:00,
2013-01-08 02:32:00,39.0,27.0,-100.00,SE,137,8.0,16.0,61,0.00,,,0.00,0.000000,,2013-01-08 07:32:00,
2013-01-08 02:42:00,39.0,27.0,-100.00,SE,137,8.0,16.0,61,0.00,,,0.00,0.000000,,2013-01-08 07:42:00,
2013-01-08 02:52:00,39.0,27.0,-100.00,SE,137,8.0,16.0,61,0.00,,,0.00,0.000000,,2013-01-08 07:52:00,
2013-01-08 03:02:00,39.0,27.0,-100.00,SE,137,8.0,16.0,61,0.00,,,0.00,0.000000,,2013-01-08 08:02:00,
2013-01-08 03:32:00,38.0,27.0,-100.00,SE,136,9.0,19.0,63,0.00,,,0.00,0.000000,,2013-01-08 08:32:00,
2013-01-08 03:42:00,38.0,27.0,-100.00,SE,136,9.0,19.0,63,0.00,,,0.00,0.000000,,2013-01-08 08:42:00,
2013-01-08 03:53:00,38.0,27.0,-100.00,SE,136,9.0,19.0,63,0.00,,,0.00,0.000000,,2013-01-08 08:53:00,
2013-01-08 04:02:00,38.0,27.0,-100.00,SE,136,9.0,19.0,63,0.00,,,0.00,0.000000,,2013-01-08 09:02:00,
2013-01-08 04:33:00,38.0,27.0,-100.00,SE,142,9.0,15.0,65,0.00,,,0.00,0.000000,,2013-01-08 09:33:00,
2013-01-08 04:42:00,38.0,27.0,-100.00,SE,142,9.0,15.0,65,0.00,,,0.00,0.000000,,2013-01-08 09:42:00,
2013-01-08 04:53:00,38.0,27.0,-100.00,SE,142,9.0,15.0,65,0.00,,,0.00,0.000000,,2013-01-08 09:53:00,
2013-01-08 05:02:00,38.0,27.0,-100.00,SE,142,9.0,15.0,65,0.00,,,0.00,0.000000,,2013-01-08 10:02:00,
2013-01-08 05:33:00,38.0,28.0,-100.00,SE,141,8.0,14.0,67,0.00,,,0.00,0.000000,,2013-01-08 10:33:00,
2013-01-08 05:43:00,38.0,28.0,-100.00,SE,141,8.0,14.0,67,0.00,,,0.00,0.000000,,2013-01-08 10:43:00,
2013-01-08 05:53:00,38.0,28.0,-100.00,SE,141,8.0,14.0,67,0.00,,,0.00,0.000000,,2013-01-08 10:53:00,
2013-01-08 06:02:00,38.0,28.0,-100.00,SE,141,8.0,14.0,67,0.00,,,0.00,0.000000,,2013-01-08 11:02:00,
2013-01-08 06:33:00,38.0,28.0,-100.00,SE,136,7.0,15.0,68,0.00,,,0.00,0.000000,,2013-01-08 11:33:00,
2013-01-08 06:43:00,38.0,28.0,-100.00,SE,136,7.0,15.0,68,0.00,,,0.00,0.000000,,2013-01-08 11:43:00,
2013-01-08 06:53:00,38.0,28.0,-100.00,SE,136,7.0,15.0,68,0.00,,,0.00,0.000000,,2013-01-08 11:53:00,
2013-01-08 07:03:00,38.0,28.0,-100.00,SE,136,7.0,15.0,68,0.00,,,0.00,0.000000,,2013-01-08 12:03:00,
2013-01-08 07:33:00,37.0,28.0,-100.00,SE,139,6.0,12.0,70,0.00,,,0.00,0.000000,,2013-01-08 12:33:00,
2013-01-08 07:43:00,37.0,28.0,-100.00,SE,139,6.0,12.0,70,0.00,,,0.00,0.000000,,2013-01-08 12:43:00,
2013-01-08 07:53:00,37.0,28.0,-100.00,SE,139,6.0,12.0,70,0.00,,,0.00,0.000000,,2013-01-08 12:53:00,
2013-01-08 08:03:00,37.0,28.0,-100.00,SE,139,6.0,12.0,70,0.00,,,0.00,0.000000,,2013-01-08 13:03:00,
2013-01-08 08:33:00,38.0,29.0,-100.00,SSE,154,5.0,10.0,70,0.00,,,0.00,2.000000,,2013-01-08 13:33:00,
2013-01-08 08:43:00,38.0,29.0,-100.00,SSE,154,5.0,10.0,70,0.00,,,0.00,2.000000,,2013-01-08 13:43:00,
2013-01-08 08:53:00,38.0,29.0,-100.00,SSE,154,5.0,10.0,70,0.00,,,0.00,2.000000,,2013-01-08 13:53:00,
2013-01-08 09:03:00,38.0,29.0,-100.00,SSE,154,5.0,10.0,70,0.00,,,0.00,2.000000,,2013-01-08 14:03:00,
2013-01-08 09:33:00,40.0,31.0,-100.00,South,189,3.0,7.0,69,0.00,,,0.00,68.000000,,2013-01-08 14:33:00,
2013-01-08 09:43:00,40.0,31.0,-100.00,South,189,3.0,7.0,69,0.00,,,0.00,68.000000,,2013-01-08 14:43:00,
2013-01-08 09:53:00,40.0,31.0,-100.00,South,189,3.0,7.0,69,0.00,,,0.00,68.000000,,2013-01-08 14:53:00,
2013-01-08 10:03:00,40.0,31.0,-100.00,South,189,3.0,7.0,69,0.00,,,0.00,68.000000,,2013-01-08 15:03:00,
2013-01-08 10:33:00,46.0,33.0,-100.00,SSE,147,4.0,8.0,60,0.00,,,0.00,237.000000,,2013-01-08 15:33:00,
2013-01-08 10:43:00,46.0,33.0,-100.00,SSE,147,4.0,8.0,60,0.00,,,0.00,237.000000,,2013-01-08 15:43:00,
2013-01-08 10:53:00,46.0,33.0,-100.00,SSE,147,4.0,8.0,60,0.00,,,0.00,237.000000,,2013-01-08 15:53:00,
2013-01-08 11:03:00,46.0,33.0,-100.00,SSE,147,4.0,8.0,60,0.00,,,0.00,237.000000,,2013-01-08 16:03:00,
2013-01-08 11:34:00,50.0,34.0,-100.00,SE,145,5.0,9.0,55,0.00,,,0.00,375.000000,,2013-01-08 16:34:00,
2013-01-08 11:43:00,50.0,34.0,-100.00,SE,145,5.0,9.0,55,0.00,,,0.00,375.000000,,2013-01-08 16:43:00,
2013-01-08 11:53:00,50.0,34.0,-100.00,SE,145,5.0,9.0,55,0.00,,,0.00,375.000000,,2013-01-08 16:53:00,
2013-01-08 12:03:00,50.0,34.0,-100.00,SE,145,5.0,9.0,55,0.00,,,0.00,375.000000,,2013-01-08 17:03:00,
2013-01-08 12:34:00,52.0,36.0,-100.00,SE,142,6.0,11.0,55,0.00,,,0.00,441.000000,,2013-01-08 17:34:00,
2013-01-08 12:43:00,52.0,36.0,-100.00,SE,142,6.0,11.0,55,0.00,,,0.00,441.000000,,2013-01-08 17:43:00,
2013-01-08 12:54:00,52.0,36.0,-100.00,SE,142,6.0,11.0,55,0.00,,,0.00,441.000000,,2013-01-08 17:54:00,
2013-01-08 13:04:00,52.0,36.0,-100.00,SE,142,6.0,11.0,55,0.00,,,0.00,441.000000,,2013-01-08 18:04:00,
2013-01-08 13:33:00,56.0,38.0,-100.00,South,174,6.0,10.0,51,0.00,,,0.00,581.000000,,2013-01-08 18:33:00,
2013-01-08 13:43:00,56.0,38.0,-100.00,South,174,6.0,10.0,51,0.00,,,0.00,581.000000,,2013-01-08 18:43:00,
2013-01-08 13:53:00,56.0,38.0,-100.00,South,174,6.0,10.0,51,0.00,,,0.00,581.000000,,2013-01-08 18:53:00,
2013-01-08 14:03:00,56.0,38.0,-100.00,South,174,6.0,10.0,51,0.00,,,0.00,581.000000,,2013-01-08 19:03:00,
2013-01-08 14:33:00,57.0,40.0,-100.00,South,175,6.0,11.0,53,0.00,,,0.00,539.000000,,2013-01-08 19:33:00,
2013-01-08 14:43:00,57.0,40.0,-100.00,South,175,6.0,11.0,53,0.00,,,0.00,539.000000,,2013-01-08 19:43:00,
2013-01-08 14:53:00,57.0,40.0,-100.00,South,175,6.0,11.0,53,0.00,,,0.00,539.000000,,2013-01-08 19:53:00,
2013-01-08 15:03:00,57.0,40.0,-100.00,South,175,6.0,11.0,53,0.00,,,0.00,539.000000,,2013-01-08 20:03:00,
2013-01-08 15:33:00,54.0,36.0,-100.00,WNW,302,5.0,12.0,50,0.00,,,0.00,452.000000,,2013-01-08 20:33:00,
2013-01-08 15:43:00,54.0,36.0,-100.00,WNW,302,5.0,12.0,50,0.00,,,0.00,452.000000,,2013-01-08 20:43:00,
2013-01-08 15:54:00,54.0,36.0,-100.00,WNW,302,5.0,12.0,50,0.00,,,0.00,452.000000,,2013-01-08 20:54:00,
2013-01-08 16:03:00,54.0,36.0,-100.00,WNW,302,5.0,12.0,50,0.00,,,0.00,452.000000,,2013-01-08 21:03:00,
2013-01-08 16:33:00,57.0,40.0,-100.00,SSE,147,5.0,8.0,53,0.00,,,0.00,280.000000,,2013-01-08 21:33:00,
2013-01-08 16:43:00,57.0,40.0,-100.00,SSE,147,5.0,8.0,53,0.00,,,0.00,280.000000,,2013-01-08 21:43:00,
2013-01-08 16:53:00,57.0,40.0,-100.00,SSE,147,5.0,8.0,53,0.00,,,0.00,280.000000,,2013-01-08 21:53:00,
2013-01-08 17:04:00,57.0,40.0,-100.00,SSE,147,5.0,8.0,53,0.00,,,0.00,280.000000,,2013-01-08 22:04:00,
2013-01-08 17:33:00,57.0,41.0,-100.00,SSE,162,2.0,10.0,54,0.00,,,0.00,151.000000,,2013-01-08 22:33:00,
2013-01-08 17:43:00,57.0,41.0,-100.00,SSE,162,2.0,10.0,54,0.00,,,0.00,151.000000,,2013-01-08 22:43:00,
2013-01-08 17:53:00,57.0,41.0,-100.00,SSE,162,2.0,10.0,54,0.00,,,0.00,151.000000,,2013-01-08 22:53:00,
2013-01-08 18:03:00,57.0,41.0,-100.00,SSE,162,2.0,10.0,54,0.00,,,0.00,151.000000,,2013-01-08 23:03:00,
2013-01-08 18:33:00,45.0,39.0,-100.00,West,263,0.0,3.0,79,0.00,,,0.00,12.000000,,2013-01-08 23:33:00,
2013-01-08 18:43:00,45.0,39.0,-100.00,West,263,0.0,3.0,79,0.00,,,0.00,12.000000,,2013-01-08 23:43:00,
2013-01-08 18:53:00,45.0,39.0,-100.00,West,263,0.0,3.0,79,0.00,,,0.00,12.000000,,2013-01-08 23:53:00,
2013-01-08 19:03:00,45.0,39.0,-100.00,West,263,0.0,3.0,79,0.00,,,0.00,12.000000,,2013-01-09 00:03:00,
2013-01-08 19:33:00,42.0,39.0,-100.00,NNW,344,2.0,3.0,89,0.00,,,0.00,0.000000,,2013-01-09 00:33:00,
2013-01-08 19:43:00,42.0,39.0,-100.00,NNW,344,2.0,3.0,89,0.00,,,0.00,0.000000,,2013-01-09 00:43:00,
2013-01-08 19:53:00,42.0,39.0,-100.00,NNW,344,2.0,3.0,89,0.00,,,0.00,0.000000,,2013-01-09 00:53:00,
2013-01-08 20:02:00,42.0,39.0,-100.00,NNW,344,2.0,3.0,89,0.00,,,0.00,0.000000,,2013-01-09 01:02:00,
2013-01-08 20:33:00,42.0,40.0,-100.00,NNW,337,0.0,4.0,91,0.00,,,0.00,0.000000,,2013-01-09 01:33:00,
2013-01-08 20:43:00,42.0,40.0,-100.00,NNW,337,0.0,4.0,91,0.00,,,0.00,0.000000,,2013-01-09 01:43:00,
2013-01-08 20:53:00,42.0,40.0,-100.00,NNW,337,0.0,4.0,91,0.00,,,0.00,0.000000,,2013-01-09 01:53:00,
2013-01-08 21:02:00,42.0,40.0,-100.00,NNW,337,0.0,4.0,91,0.00,,,0.00,0.000000,,2013-01-09 02:02:00,
2013-01-08 21:33:00,43.0,41.0,-100.00,South,175,4.0,5.0,93,0.00,,,0.00,0.000000,,2013-01-09 02:33:00,
2013-01-08 21:43:00,43.0,41.0,-100.00,South,175,4.0,5.0,93,0.00,,,0.00,0.000000,,2013-01-09 02:43:00,
2013-01-08 21:53:00,43.0,41.0,-100.00,South,175,4.0,5.0,93,0.00,,,0.00,0.000000,,2013-01-09 02:53:00,
2013-01-08 22:03:00,43.0,41.0,-100.00,South,175,4.0,5.0,93,0.00,,,0.00,0.000000,,2013-01-09 03:03:00,
2013-01-08 22:33:00,49.0,46.0,-100.00,SE,133,4.0,10.0,88,0.00,,,0.00,0.000000,,2013-01-09 03:33:00,
2013-01-08 22:43:00,49.0,46.0,-100.00,SE,133,4.0,10.0,88,0.00,,,0.00,0.000000,,2013-01-09 03:43:00,
2013-01-08 22:53:00,49.0,46.0,-100.00,SE,133,4.0,10.0,88,0.00,,,0.00,0.000000,,2013-01-09 03:53:00,
2013-01-08 23:02:00,49.0,46.0,-100.00,SE,133,4.0,10.0,88,0.00,,,0.00,0.000000,,2013-01-09 04:02:00,
2013-01-08 23:33:00,50.0,48.0,-100.00,SE,137,5.0,11.0,92,0.00,,,0.00,0.000000,,2013-01-09 04:33:00,
2013-01-08 23:43:00,50.0,48.0,-100.00,SE,137,5.0,11.0,92,0.00,,,0.00,0.000000,,2013-01-09 04:43:00,
2013-01-08 23:53:00,50.0,48.0,-100.00,SE,137,5.0,11.0,92,0.00,,,0.00,0.000000,,2013-01-09 04:53:00,